This is the latest recevied weather packets stored in our database for station/object I3RKE-10. If no packets are shown the sender has not sent any weather packets the latest 10 day(s).
| Time | Temp. | Humidity | Pressure | Rain* | Wind** | Luminosity | Snow |
|---|---|---|---|---|---|---|---|
| 1777469145 | 20° C | 57% | 1011.8 hPa | - | - | - | - |
| 1777468339 | 20.56° C | 54% | 1011.6 hPa | - | - | - | - |
| 1777468245 | 20.56° C | 54% | 1011.6 hPa | - | - | - | - |
| 1777467345 | 21.11° C | 53% | 1011.7 hPa | - | - | - | - |
| 1777461944 | 21.67° C | 47% | 1011.7 hPa | - | - | - | - |
| 1777459244 | 20.56° C | 48% | 1011.8 hPa | - | - | - | - |
| 1777458344 | 20.56° C | 48% | 1011.8 hPa | - | - | - | - |
| 1777457444 | 21.11° C | 49% | 1011.8 hPa | - | - | - | - |
| 1777456544 | 21.67° C | 48% | 1011.8 hPa | - | - | - | - |
| 1777455643 | 22.78° C | 47% | 1011.6 hPa | - | - | - | - |
| 1777454743 | 21.67° C | 49% | 1011.7 hPa | - | - | - | - |
| 1777453843 | 21.11° C | 50% | 1011.6 hPa | - | - | - | - |
| 1777452043 | 20.56° C | 50% | 1011.5 hPa | - | - | - | - |
| 1777451143 | 20.56° C | 49% | 1011.5 hPa | - | - | - | - |
| 1777450243 | 21.11° C | 48% | 1011.4 hPa | - | - | - | - |
| 1777449343 | 20.56° C | 48% | 1011.1 hPa | - | - | - | - |
| 1777448443 | 19.44° C | 51% | 1011.2 hPa | - | - | - | - |
| 1777447543 | 19.44° C | 55% | 1011.2 hPa | - | - | - | - |
| 1777446642 | 19.44° C | 55% | 1011 hPa | - | - | - | - |
| 1777445742 | 18.89° C | 58% | 1010.9 hPa | - | - | - | - |
| 1777444842 | 17.78° C | 60% | 1010.9 hPa | - | - | - | - |
| 1777443942 | 17.22° C | 62% | 1010.7 hPa | - | - | - | - |
| 1777443042 | 17.22° C | 63% | 1010.6 hPa | - | - | - | - |
| 1777442142 | 16.67° C | 64% | 1010.5 hPa | - | - | - | - |
| 1777441242 | 16.67° C | 64% | 1010.6 hPa | - | - | - | - |
* Rain since midnight (hover to see other rain measurements)
** Current wind speed in m/s (hover to see current wind gust speed)